Time;durP1;ratioP1;P1;durP2;ratioP2;P2;SDS_P1;SDS_P2;PMS_P1;PMS_P2;Temp;Humidity;BMP_temperature;BMP_pressure;BME280_temperature;BME280_humidity;BME280_pressure;Samples;Min_cycle;Max_cycle;Signal;HPM_P1;HPM_P2
2023/03/01 00:00:31;;;;;;;2.90;1.50;;;;;;;16.69;46.39;103343.63;6246374;22;20420;-86
2023/03/01 00:06:25;;;;;;;2.40;1.70;;;;;;;16.66;46.50;103334.00;6220757;22;20050;-83
2023/03/01 00:08:51;;;;;;;2.35;1.60;;;;;;;16.64;46.37;103327.88;6248823;22;20020;-89
2023/03/01 00:11:22;;;;;;;2.40;1.50;;;;;;;16.64;46.32;103325.28;6278661;22;19988;-88
2023/03/01 00:16:38;;;;;;;3.35;1.70;;;;;;;16.66;46.21;103322.75;6270348;22;20030;-82
2023/03/01 00:19:04;;;;;;;2.28;1.30;;;;;;;16.65;46.38;103323.56;6253937;23;20000;-82
2023/03/01 00:21:31;;;;;;;2.60;1.50;;;;;;;16.68;46.42;103326.28;6227796;23;20428;-81
2023/03/01 00:23:58;;;;;;;2.30;1.50;;;;;;;16.65;46.41;103321.84;6249064;23;20058;-81
2023/03/01 00:32:43;;;;;;;2.00;1.40;;;;;;;16.62;46.34;103315.66;6286653;22;20028;-90
2023/03/01 00:35:08;;;;;;;2.22;1.40;;;;;;;16.62;46.34;103313.94;6268482;22;20015;-81
2023/03/01 00:40:49;;;;;;;1.90;1.25;;;;;;;16.62;46.18;103315.66;6249842;22;20024;-91
2023/03/01 00:43:15;;;;;;;3.88;1.50;;;;;;;16.59;46.49;103313.84;6184746;22;20024;-87
2023/03/01 00:45:40;;;;;;;2.13;1.58;;;;;;;16.61;46.42;103312.19;6335193;22;20033;-88
2023/03/01 00:48:06;;;;;;;2.08;1.20;;;;;;;16.60;46.10;103315.59;6293653;22;19991;-80
2023/03/01 00:50:31;;;;;;;2.17;1.45;;;;;;;16.59;46.43;103319.06;6258677;22;20072;-81
2023/03/01 00:52:57;;;;;;;2.35;1.30;;;;;;;16.56;46.29;103316.31;6284826;22;20042;-81
2023/03/01 00:55:23;;;;;;;6.10;1.70;;;;;;;16.57;46.28;103312.91;6284402;22;20011;-82
2023/03/01 00:57:49;;;;;;;2.08;1.42;;;;;;;16.57;46.36;103315.50;6283037;22;20004;-82
2023/03/01 01:00:14;;;;;;;1.58;1.40;;;;;;;16.59;46.44;103312.94;6283359;22;20011;-82
2023/03/01 01:02:40;;;;;;;2.33;1.50;;;;;;;16.56;46.51;103308.53;6257747;22;20007;-82
2023/03/01 01:05:05;;;;;;;2.00;1.20;;;;;;;16.57;46.34;103309.41;6258389;22;20007;-82
2023/03/01 01:10:21;;;;;;;3.33;1.50;;;;;;;16.54;46.50;103304.13;6268116;22;20028;-81
2023/03/01 01:12:46;;;;;;;1.73;1.40;;;;;;;16.54;46.47;103302.38;6311785;22;20110;-82
2023/03/01 01:18:07;;;;;;;1.80;1.30;;;;;;;16.53;46.48;103292.84;6247915;22;20039;-91
2023/03/01 01:20:32;;;;;;;2.42;1.50;;;;;;;16.54;46.30;103296.31;6245138;22;20020;-81
2023/03/01 01:22:58;;;;;;;1.65;1.30;;;;;;;16.54;46.19;103299.78;6199462;23;20012;-81
2023/03/01 01:25:26;;;;;;;1.60;1.20;;;;;;;16.51;46.58;103293.63;6224580;23;20015;-80
2023/03/01 01:27:51;;;;;;;2.03;1.33;;;;;;;16.52;46.54;103292.78;6200794;23;20004;-80
2023/03/01 01:30:17;;;;;;;2.70;1.30;;;;;;;16.50;46.53;103281.44;6223198;23;20012;-81
2023/03/01 01:32:42;;;;;;;1.60;1.25;;;;;;;16.51;46.32;103273.72;6211312;23;20108;-80
2023/03/01 01:37:50;;;;;;;2.47;1.20;;;;;;;16.51;46.49;103270.22;6265489;22;20028;-89
2023/03/01 01:40:15;;;;;;;1.60;1.10;;;;;;;16.48;46.43;103259.72;6205073;23;20044;-88
2023/03/01 01:48:10;;;;;;;1.35;1.15;;;;;;;16.49;46.55;103251.97;6183115;22;20025;-85
2023/03/01 01:58:21;;;;;;;1.38;1.08;;;;;;;16.51;46.52;103247.72;6263631;22;20019;-86
2023/03/01 02:00:48;;;;;;;1.55;1.10;;;;;;;16.53;46.59;103253.84;6335132;22;20011;-90
2023/03/01 02:03:19;;;;;;;2.03;1.20;;;;;;;16.50;46.64;103245.94;6281321;22;20012;-90
2023/03/01 02:05:56;;;;;;;1.55;1.05;;;;;;;16.52;46.63;103246.00;6278722;22;19999;-89
2023/03/01 02:08:25;;;;;;;1.17;0.98;;;;;;;16.52;46.68;103248.59;6224013;22;20024;-88
2023/03/01 02:10:52;;;;;;;1.30;1.08;;;;;;;16.53;46.62;103253.84;6303713;22;20007;-88
2023/03/01 02:15:53;;;;;;;2.13;1.05;;;;;;;16.52;46.69;103251.19;6260165;22;20026;-87
2023/03/01 02:18:22;;;;;;;2.35;0.88;;;;;;;16.49;46.64;103246.78;6335600;22;20011;-85
2023/03/01 02:34:07;;;;;;;1.35;1.02;;;;;;;16.51;46.81;103229.53;6243961;22;20387;-84
2023/03/01 02:44:19;;;;;;;1.77;1.08;;;;;;;16.48;46.81;103223.31;6225539;22;20015;-87
2023/03/01 03:06:02;;;;;;;1.30;0.93;;;;;;;16.51;46.71;103211.31;6276231;22;20075;-88
2023/03/01 03:18:49;;;;;;;1.85;0.80;;;;;;;16.49;46.74;103199.13;6255344;22;20012;-85
2023/03/01 03:21:16;;;;;;;1.48;1.00;;;;;;;16.50;46.89;103195.69;6222537;22;20020;-88
2023/03/01 03:23:42;;;;;;;1.10;0.80;;;;;;;16.49;46.85;103194.81;6218491;23;20040;-86
2023/03/01 03:31:19;;;;;;;1.20;0.93;;;;;;;16.50;46.96;103182.69;6268282;22;20030;-88
2023/03/01 03:42:10;;;;;;;1.17;0.90;;;;;;;16.50;47.00;103177.47;6259243;22;20030;-89
2023/03/01 03:44:37;;;;;;;1.73;0.98;;;;;;;16.49;46.93;103176.59;6278123;22;20007;-88
2023/03/01 04:00:12;;;;;;;1.33;0.90;;;;;;;16.44;47.13;103176.47;6238748;22;20053;-86
2023/03/01 04:02:40;;;;;;;1.00;0.90;;;;;;;16.46;46.84;103173.88;6184106;22;20031;-83
2023/03/01 04:07:42;;;;;;;1.30;0.93;;;;;;;16.42;47.02;103172.94;6227549;22;20247;-91
2023/03/01 04:15:18;;;;;;;1.15;0.73;;;;;;;16.39;46.98;103172.81;6253094;22;20036;-88
2023/03/01 04:20:24;;;;;;;1.25;0.90;;;;;;;16.38;47.21;103170.19;6272777;22;20344;-81
2023/03/01 04:22:51;;;;;;;1.65;1.00;;;;;;;16.38;47.19;103159.78;6282657;22;20052;-82
2023/03/01 04:25:17;;;;;;;1.08;0.90;;;;;;;16.38;47.34;103159.78;6229888;22;20015;-82
2023/03/01 04:27:43;;;;;;;1.00;0.73;;;;;;;16.39;47.30;103161.53;6256425;22;20003;-83
2023/03/01 04:30:10;;;;;;;0.80;0.80;;;;;;;16.38;47.25;103155.47;6260399;22;20011;-83
2023/03/01 04:32:35;;;;;;;1.60;0.88;;;;;;;16.40;47.01;103151.19;6258430;22;20011;-82
2023/03/01 04:35:01;;;;;;;1.05;0.80;;;;;;;16.40;47.12;103153.81;6257662;22;20039;-82
2023/03/01 04:37:27;;;;;;;1.70;0.90;;;;;;;16.39;47.08;103148.53;6260568;22;20078;-81
2023/03/01 04:39:52;;;;;;;2.72;0.93;;;;;;;16.41;47.21;103152.06;6291361;22;20078;-82
2023/03/01 04:42:18;;;;;;;1.38;0.88;;;;;;;16.43;46.90;103153.88;6262663;22;20007;-81
2023/03/01 04:44:44;;;;;;;0.80;0.70;;;;;;;16.41;47.16;103149.47;6312449;22;20498;-81
2023/03/01 04:47:10;;;;;;;1.52;1.08;;;;;;;16.41;47.25;103139.97;6286564;22;20428;-82
2023/03/01 04:49:36;;;;;;;1.13;0.90;;;;;;;16.40;47.07;103142.53;6289030;22;20065;-82
2023/03/01 04:52:02;;;;;;;1.10;0.80;;;;;;;16.37;47.14;103138.09;6287958;22;20026;-81
2023/03/01 04:54:28;;;;;;;1.83;0.82;;;;;;;16.37;47.14;103132.91;6292855;22;20007;-82
2023/03/01 04:56:54;;;;;;;1.23;0.90;;;;;;;16.37;47.14;103134.63;6323701;22;20025;-81
2023/03/01 04:59:22;;;;;;;1.10;0.70;;;;;;;16.36;47.05;103140.66;6295309;22;19999;-82
2023/03/01 05:01:48;;;;;;;1.13;0.77;;;;;;;16.36;47.25;103144.13;6322143;22;20003;-81
2023/03/01 05:04:13;;;;;;;1.35;0.93;;;;;;;16.37;47.17;103145.00;6293623;22;20014;-81
2023/03/01 05:06:39;;;;;;;1.38;0.80;;;;;;;16.36;47.12;103145.88;6296780;22;20011;-81
2023/03/01 05:09:05;;;;;;;1.42;0.77;;;;;;;16.36;47.29;103146.72;6271630;22;19999;-83
2023/03/01 05:11:33;;;;;;;2.45;0.63;;;;;;;16.36;47.18;103149.34;6270056;22;20008;-82
2023/03/01 05:13:59;;;;;;;1.00;0.70;;;;;;;16.37;47.13;103153.69;6244374;22;20011;-82
2023/03/01 05:16:24;;;;;;;0.80;0.80;;;;;;;16.35;46.96;103142.38;6293364;22;20094;-82
2023/03/01 05:18:55;;;;;;;1.50;0.82;;;;;;;16.37;47.12;103140.69;6293318;22;20015;-82
2023/03/01 05:21:21;;;;;;;1.00;0.70;;;;;;;16.38;46.86;103131.19;6268539;22;20018;-82
2023/03/01 05:23:46;;;;;;;3.00;0.77;;;;;;;16.38;46.76;103128.59;6322532;22;20003;-83
2023/03/01 05:26:13;;;;;;;0.98;0.85;;;;;;;16.39;47.10;103122.56;6294860;22;20031;-82
2023/03/01 05:28:39;;;;;;;1.00;0.70;;;;;;;16.40;47.15;103121.75;6320421;22;20074;-82
2023/03/01 05:31:09;;;;;;;1.15;0.80;;;;;;;16.40;46.81;103127.81;6293069;22;20038;-80
2023/03/01 05:33:36;;;;;;;1.48;0.80;;;;;;;16.37;46.84;103116.44;6291695;22;20469;-82
2023/03/01 05:36:02;;;;;;;1.65;0.80;;;;;;;16.38;46.96;103116.47;6292773;22;20003;-81
2023/03/01 05:38:28;;;;;;;1.10;0.80;;;;;;;16.40;46.92;103111.34;6291959;22;20036;-82
2023/03/01 05:40:53;;;;;;;1.42;0.70;;;;;;;16.39;47.04;103106.97;6292495;22;20082;-82
2023/03/01 05:43:19;;;;;;;0.98;0.75;;;;;;;16.38;47.06;103105.22;6288377;22;20003;-82
2023/03/01 05:45:45;;;;;;;0.98;0.65;;;;;;;16.42;46.85;103107.09;6289699;22;20046;-82
2023/03/01 05:48:11;;;;;;;1.15;0.80;;;;;;;16.39;47.08;103097.44;6317253;22;20002;-82
2023/03/01 05:50:42;;;;;;;1.58;0.90;;;;;;;16.40;46.95;103101.81;6291750;22;19999;-80
2023/03/01 05:53:22;;;;;;;0.88;0.68;;;;;;;16.37;46.90;103096.50;6318698;22;20000;-81
2023/03/01 05:55:49;;;;;;;0.98;0.55;;;;;;;16.40;47.04;103099.22;6291419;22;20007;-81
2023/03/01 05:58:21;;;;;;;0.70;0.60;;;;;;;16.39;46.84;103088.78;6290108;22;20007;-80
2023/03/01 06:00:48;;;;;;;1.00;0.68;;;;;;;16.40;46.97;103095.75;6290167;22;20076;-81
2023/03/01 06:03:15;;;;;;;1.15;0.88;;;;;;;16.42;46.90;103096.69;6291072;22;20078;-80
2023/03/01 06:05:42;;;;;;;1.10;0.80;;;;;;;16.40;46.73;103104.44;6316755;22;20002;-80
2023/03/01 06:08:09;;;;;;;0.98;0.60;;;;;;;16.41;46.62;103100.97;6316661;22;19991;-81
2023/03/01 06:10:38;;;;;;;1.17;0.70;;;;;;;16.38;47.12;103100.03;6290425;22;20355;-82
2023/03/01 06:13:03;;;;;;;1.58;1.00;;;;;;;16.41;46.91;103102.69;6288035;22;20007;-81
2023/03/01 06:15:29;;;;;;;1.30;0.80;;;;;;;16.43;46.98;103096.72;6317485;22;20082;-81
2023/03/01 06:17:59;;;;;;;1.00;0.70;;;;;;;16.44;47.22;103100.22;6300499;22;20010;-82
2023/03/01 06:20:26;;;;;;;1.08;0.70;;;;;;;16.45;46.79;103087.25;6326456;22;20019;-81
2023/03/01 06:22:52;;;;;;;1.23;0.70;;;;;;;16.44;46.96;103098.50;6300001;22;20440;-80
2023/03/01 06:25:21;;;;;;;2.75;0.77;;;;;;;16.45;46.80;103091.56;6262400;22;20060;-81
2023/03/01 06:27:48;;;;;;;1.67;0.93;;;;;;;16.45;46.66;103086.38;6318436;22;19999;-82
2023/03/01 06:30:16;;;;;;;2.75;0.80;;;;;;;16.46;46.88;103088.13;6294593;22;20320;-83
2023/03/01 06:32:42;;;;;;;1.45;0.80;;;;;;;16.45;46.76;103082.03;6293618;22;20033;-81
2023/03/01 06:35:09;;;;;;;0.88;0.70;;;;;;;16.46;46.77;103088.13;6287747;22;20499;-81
2023/03/01 06:37:35;;;;;;;1.17;0.80;;;;;;;16.45;46.97;103079.44;6312799;22;19999;-81
2023/03/01 06:40:11;;;;;;;1.05;0.73;;;;;;;16.47;46.79;103076.91;6236344;22;20019;-82
2023/03/01 06:42:38;;;;;;;2.08;0.93;;;;;;;16.48;46.73;103082.97;6289999;22;19999;-77
2023/03/01 06:45:04;;;;;;;1.50;1.00;;;;;;;16.49;46.83;103080.44;6282466;22;20015;-78
2023/03/01 06:47:30;;;;;;;1.77;1.00;;;;;;;16.51;47.05;103080.50;6309391;22;20002;-77
2023/03/01 06:49:56;;;;;;;1.70;1.05;;;;;;;16.53;46.88;103084.91;6256584;22;20011;-78
2023/03/01 06:52:21;;;;;;;20.05;1.50;;;;;;;16.67;47.15;103088.78;6282086;22;20003;-78
2023/03/01 06:58:33;;;;;;;5.90;2.70;;;;;;;17.02;47.02;103082.88;6329381;22;20002;-86
2023/03/01 07:00:58;;;;;;;12.00;2.95;;;;;;;17.04;47.11;103082.09;6292051;22;20072;-80
2023/03/01 07:03:24;;;;;;;7.28;2.40;;;;;;;17.05;46.91;103080.41;6311327;22;20011;-82
2023/03/01 07:05:52;;;;;;;5.78;2.42;;;;;;;17.03;46.96;103075.13;6259452;22;20141;-82
2023/03/01 07:08:17;;;;;;;8.05;2.50;;;;;;;17.06;47.07;103077.81;6285442;22;19999;-82
2023/03/01 07:10:43;;;;;;;7.20;2.47;;;;;;;17.07;47.11;103081.28;6289185;22;20114;-83
2023/03/01 07:13:08;;;;;;;5.57;2.10;;;;;;;17.09;46.94;103089.16;6271917;22;20061;-82
2023/03/01 07:15:34;;;;;;;10.70;2.33;;;;;;;17.10;46.98;103094.41;6267375;22;20007;-83
2023/03/01 07:17:59;;;;;;;7.05;2.30;;;;;;;17.10;46.93;103090.94;6286669;22;20007;-82
2023/03/01 07:20:25;;;;;;;5.50;2.10;;;;;;;17.10;46.92;103093.53;6284939;22;20026;-83
2023/03/01 07:22:54;;;;;;;7.25;2.45;;;;;;;17.08;46.92;103096.06;6285200;22;20090;-83
2023/03/01 07:25:20;;;;;;;6.95;2.10;;;;;;;17.09;46.96;103095.22;6284481;22;20004;-83
2023/03/01 07:27:51;;;;;;;6.53;2.63;;;;;;;17.12;46.86;103103.13;6259923;22;20015;-82
2023/03/01 07:30:16;;;;;;;5.57;2.47;;;;;;;17.12;46.84;103102.25;6285304;22;20099;-84
2023/03/01 07:32:42;;;;;;;5.60;2.20;;;;;;;17.11;46.77;103108.28;6285708;22;20003;-83
2023/03/01 07:35:07;;;;;;;5.88;2.47;;;;;;;17.11;46.62;103095.28;6258471;22;20017;-84
2023/03/01 07:37:33;;;;;;;4.20;2.28;;;;;;;17.10;46.83;103103.94;6259775;22;20007;-81
2023/03/01 07:39:58;;;;;;;5.85;1.90;;;;;;;17.12;46.91;103104.88;6265319;22;20500;-82
2023/03/01 07:42:24;;;;;;;4.68;2.17;;;;;;;17.12;46.66;103108.34;6262069;22;20011;-82
2023/03/01 07:44:49;;;;;;;5.28;2.13;;;;;;;17.12;46.67;103117.88;6257770;22;20068;-82
2023/03/01 07:47:14;;;;;;;4.22;2.15;;;;;;;17.09;46.67;103123.84;6283116;22;20331;-83
2023/03/01 07:49:43;;;;;;;3.88;2.35;;;;;;;17.10;46.85;103119.53;6259587;22;20031;-82
2023/03/01 07:52:12;;;;;;;4.60;2.15;;;;;;;17.08;46.86;103124.69;6288449;22;20003;-82
2023/03/01 07:54:38;;;;;;;3.90;2.10;;;;;;;17.10;46.97;103123.03;6263759;22;20085;-82
2023/03/01 07:57:04;;;;;;;4.13;2.17;;;;;;;17.10;46.80;103114.34;6260029;22;20007;-83
2023/03/01 07:59:29;;;;;;;3.50;1.95;;;;;;;17.10;46.61;103107.41;6285136;22;20057;-84
2023/03/01 08:02:14;;;;;;;3.17;1.90;;;;;;;17.11;46.61;103105.69;6319287;22;20007;-85
2023/03/01 08:04:43;;;;;;;6.03;2.53;;;;;;;17.12;46.79;103095.34;6284263;22;20427;-82
2023/03/01 08:07:09;;;;;;;4.38;2.35;;;;;;;17.13;46.80;103101.41;6284707;22;20010;-83
2023/03/01 08:09:37;;;;;;;4.55;2.20;;;;;;;17.14;46.72;103103.19;6313709;22;20011;-83
2023/03/01 08:12:07;;;;;;;5.07;2.15;;;;;;;17.12;46.48;103104.88;6260547;22;20045;-83
2023/03/01 08:14:32;;;;;;;5.07;2.10;;;;;;;17.14;46.74;103106.66;6313325;22;19999;-82
2023/03/01 08:16:58;;;;;;;4.32;1.92;;;;;;;17.15;46.65;103099.72;6285213;22;20105;-82
2023/03/01 08:19:23;;;;;;;7.90;2.10;;;;;;;17.15;46.66;103104.94;6258285;22;20019;-82
2023/03/01 08:21:49;;;;;;;8.57;2.38;;;;;;;17.17;46.71;103111.06;6284331;22;20022;-83
2023/03/01 08:24:14;;;;;;;3.25;1.98;;;;;;;17.17;46.58;103108.47;6286023;22;20015;-82
2023/03/01 08:26:40;;;;;;;3.45;1.92;;;;;;;17.17;46.68;103098.94;6285269;22;20072;-82
2023/03/01 08:29:08;;;;;;;4.35;2.13;;;;;;;17.18;46.32;103108.53;6259834;22;20007;-84
2023/03/01 08:31:39;;;;;;;3.60;1.90;;;;;;;17.17;46.44;103098.94;6260202;22;20000;-84
2023/03/01 08:34:08;;;;;;;3.20;2.03;;;;;;;17.20;46.58;103100.72;6284910;22;20054;-84
2023/03/01 08:36:37;;;;;;;4.22;1.88;;;;;;;17.21;46.52;103099.91;6284916;22;20004;-84
2023/03/01 08:39:03;;;;;;;2.83;2.05;;;;;;;17.24;46.62;103094.78;6284919;22;20004;-83
2023/03/01 08:41:29;;;;;;;2.92;1.98;;;;;;;17.23;46.74;103091.31;6286346;22;20015;-83
2023/03/01 08:44:00;;;;;;;2.75;1.73;;;;;;;17.24;46.64;103086.97;6285479;22;19995;-83
2023/03/01 08:46:35;;;;;;;2.75;2.08;;;;;;;17.25;46.74;103088.75;6286169;22;20436;-83
2023/03/01 08:49:08;;;;;;;4.15;2.08;;;;;;;17.27;46.38;103089.69;6312137;22;20070;-85
2023/03/01 08:51:36;;;;;;;2.38;1.83;;;;;;;17.31;46.44;103090.63;6283454;22;20018;-83
2023/03/01 08:54:06;;;;;;;2.97;1.90;;;;;;;17.31;46.53;103094.13;6283276;22;20026;-84
2023/03/01 08:56:32;;;;;;;2.72;1.75;;;;;;;17.30;46.20;103092.34;6284377;22;20038;-84
2023/03/01 08:58:58;;;;;;;2.85;1.70;;;;;;;17.30;46.32;103088.88;6284939;22;20011;-85
2023/03/01 09:01:23;;;;;;;3.15;1.98;;;;;;;17.29;46.22;103088.00;6311556;22;20017;-84
2023/03/01 09:03:48;;;;;;;2.38;1.80;;;;;;;17.35;46.38;103095.06;6233075;22;20439;-86
2023/03/01 09:06:15;;;;;;;2.55;1.58;;;;;;;17.34;46.46;103094.19;6258460;22;20467;-84
2023/03/01 09:08:46;;;;;;;2.53;1.52;;;;;;;17.30;46.29;103092.34;6284480;22;19995;-85
2023/03/01 09:11:15;;;;;;;2.78;1.70;;;;;;;17.31;46.45;103096.72;6284823;22;20003;-83
2023/03/01 09:13:41;;;;;;;3.95;1.92;;;;;;;17.34;46.24;103090.72;6284381;22;20003;-82
2023/03/01 09:16:07;;;;;;;3.08;1.75;;;;;;;17.39;46.23;103084.78;6282682;22;20014;-81
2023/03/01 09:18:34;;;;;;;2.63;1.80;;;;;;;17.39;46.21;103087.38;6257262;22;20141;-81
2023/03/01 09:21:11;;;;;;;2.92;1.88;;;;;;;17.41;46.28;103093.53;6257056;22;20057;-81
2023/03/01 09:23:39;;;;;;;2.38;1.77;;;;;;;17.45;46.02;103087.56;6309945;22;20074;-85
2023/03/01 09:26:16;;;;;;;2.65;1.67;;;;;;;17.51;45.99;103083.34;6283076;22;20011;-81
2023/03/01 09:28:42;;;;;;;4.00;1.70;;;;;;;17.56;46.18;103080.03;6282575;22;20501;-81
2023/03/01 09:31:07;;;;;;;3.05;1.60;;;;;;;17.66;45.82;103088.97;6256951;22;20011;-81
2023/03/01 09:33:33;;;;;;;3.03;1.70;;;;;;;17.61;45.90;103093.16;6231885;22;20014;-82
2023/03/01 09:36:04;;;;;;;2.38;1.73;;;;;;;17.57;45.99;103086.13;6283037;22;20085;-82
2023/03/01 09:38:30;;;;;;;2.28;1.38;;;;;;;17.53;45.99;103079.97;6310040;22;19999;-81
2023/03/01 09:40:58;;;;;;;3.35;1.77;;;;;;;17.54;45.97;103073.03;6257112;22;20022;-82
2023/03/01 09:43:53;;;;;;;3.78;1.60;;;;;;;17.66;45.88;103076.84;6258157;22;20003;-81
2023/03/01 09:46:21;;;;;;;2.92;1.77;;;;;;;17.66;45.87;103078.56;6311523;22;20001;-82
2023/03/01 09:49:06;;;;;;;3.60;1.90;;;;;;;17.65;45.83;103066.38;6316157;22;20324;-87
2023/03/01 09:51:34;;;;;;;2.42;1.60;;;;;;;17.66;45.83;103066.44;6312384;22;20056;-83
2023/03/01 09:54:02;;;;;;;3.15;1.85;;;;;;;17.69;45.44;103063.88;6310254;22;20075;-83
2023/03/01 09:56:41;;;;;;;2.97;1.90;;;;;;;17.78;45.65;103073.66;6282268;22;20084;-83
2023/03/01 09:59:37;;;;;;;2.50;1.40;;;;;;;17.80;45.42;103078.91;6282345;22;20002;-83
2023/03/01 10:02:37;;;;;;;2.30;1.58;;;;;;;17.82;45.54;103078.13;6272282;22;20408;-83
2023/03/01 10:05:29;;;;;;;3.38;1.90;;;;;;;17.80;45.48;103066.75;6310157;22;19999;-83
2023/03/01 10:08:21;;;;;;;2.38;1.67;;;;;;;17.85;45.27;103066.91;6309843;22;20031;-82
2023/03/01 10:10:49;;;;;;;2.03;1.50;;;;;;;17.91;45.11;103063.59;6283419;22;19995;-82
2023/03/01 10:13:20;;;;;;;3.05;1.60;;;;;;;17.87;45.45;103057.41;6283723;22;20406;-81
2023/03/01 10:15:54;;;;;;;2.22;1.67;;;;;;;17.84;45.43;103052.13;6310510;22;20003;-81
2023/03/01 10:18:25;;;;;;;1.98;1.40;;;;;;;17.79;45.58;103051.09;6282589;22;20057;-83
2023/03/01 10:20:58;;;;;;;2.30;1.52;;;;;;;17.73;45.81;103050.97;6309938;22;20003;-83
2023/03/01 10:23:25;;;;;;;2.70;1.67;;;;;;;17.71;45.94;103056.13;6309468;22;20026;-83
2023/03/01 10:26:05;;;;;;;2.75;1.85;;;;;;;17.73;45.81;103050.97;6257327;22;20007;-81
2023/03/01 10:28:53;;;;;;;2.45;1.75;;;;;;;17.71;46.21;103045.69;6282935;22;20078;-81
2023/03/01 10:31:27;;;;;;;2.83;1.77;;;;;;;17.72;45.83;103052.66;6283277;22;20007;-81
2023/03/01 10:33:55;;;;;;;2.60;1.70;;;;;;;17.71;45.95;103040.50;6315529;22;19999;-82
2023/03/01 10:36:21;;;;;;;2.45;1.90;;;;;;;17.67;46.01;103038.66;6292514;22;20027;-82
2023/03/01 10:39:14;;;;;;;2.20;1.85;;;;;;;17.68;45.94;103033.50;6319103;22;20003;-82
2023/03/01 10:41:59;;;;;;;2.40;1.70;;;;;;;17.68;45.88;103036.09;6271036;22;20014;-80
2023/03/01 10:44:45;;;;;;;3.05;2.00;;;;;;;17.67;46.09;103030.84;6282973;22;20053;-81
2023/03/01 10:47:26;;;;;;;2.72;1.80;;;;;;;17.67;45.99;103029.13;6283418;22;20015;-80
2023/03/01 10:50:02;;;;;;;2.80;1.98;;;;;;;17.65;46.05;103017.78;6283101;22;20007;-81
2023/03/01 10:52:35;;;;;;;3.08;1.90;;;;;;;17.65;46.11;103011.69;6291591;22;20431;-81
2023/03/01 10:55:12;;;;;;;2.80;1.80;;;;;;;17.67;45.94;103012.63;6322556;22;20047;-82
2023/03/01 10:57:40;;;;;;;3.75;1.90;;;;;;;17.65;46.08;103009.97;6293442;22;19999;-84
2023/03/01 11:00:18;;;;;;;2.65;1.88;;;;;;;17.66;45.96;103005.66;6309376;22;20004;-83
2023/03/01 11:02:51;;;;;;;3.03;1.88;;;;;;;17.66;46.01;103005.66;6281734;22;20008;-82
2023/03/01 11:05:21;;;;;;;2.67;1.77;;;;;;;17.67;45.72;103003.06;6309210;22;20014;-82
2023/03/01 11:08:05;;;;;;;2.72;1.70;;;;;;;17.68;46.05;103002.25;6281603;22;20010;-84
2023/03/01 11:10:35;;;;;;;3.47;1.60;;;;;;;17.69;46.01;102998.78;6308870;22;20003;-82
2023/03/01 11:13:15;;;;;;;2.17;1.67;;;;;;;17.69;46.30;103003.13;6281594;22;19999;-82
2023/03/01 11:16:09;;;;;;;1.98;1.67;;;;;;;17.70;45.82;103002.25;6318872;22;19983;-86
2023/03/01 11:18:35;;;;;;;;;;;;;;;17.69;46.06;103004.00;6278444;22;20799;-80
2023/03/01 11:21:02;;;;;;;2.00;1.40;;;;;;;17.71;45.87;103003.16;6308585;22;19986;-82
2023/03/01 11:23:30;;;;;;;2.55;1.50;;;;;;;17.72;46.06;102997.97;6230787;22;20098;-82
2023/03/01 11:26:01;;;;;;;2.38;1.48;;;;;;;17.72;45.94;102994.50;6281285;22;20073;-81
2023/03/01 11:28:29;;;;;;;2.10;1.48;;;;;;;17.72;45.84;102994.50;6281462;22;20380;-80
2023/03/01 11:31:16;;;;;;;2.38;1.60;;;;;;;17.73;45.90;102989.34;6309391;22;20007;-83
2023/03/01 11:33:53;;;;;;;2.15;1.50;;;;;;;17.73;45.74;102986.72;6281395;22;20422;-82
2023/03/01 11:36:45;;;;;;;2.22;1.30;;;;;;;17.75;45.81;102981.56;6308755;22;20006;-82
2023/03/01 11:39:18;;;;;;;2.50;1.40;;;;;;;17.76;45.80;102975.50;6265746;22;20015;-81
2023/03/01 11:41:51;;;;;;;2.57;1.40;;;;;;;17.76;45.58;102978.09;6281484;22;20008;-82
2023/03/01 11:44:25;;;;;;;2.05;1.50;;;;;;;17.78;45.80;102971.22;6310460;22;20026;-82
2023/03/01 11:46:57;;;;;;;1.92;1.27;;;;;;;17.79;45.65;102966.06;6310780;22;20055;-82
2023/03/01 11:49:36;;;;;;;1.90;1.40;;;;;;;17.79;45.71;102963.44;6310239;22;20076;-82
2023/03/01 11:52:20;;;;;;;4.28;1.60;;;;;;;17.81;45.60;102953.03;6310145;22;20030;-82
2023/03/01 11:55:23;;;;;;;1.95;1.20;;;;;;;17.79;45.41;102953.03;6282880;22;20007;-82
2023/03/01 11:58:18;;;;;;;2.05;1.30;;;;;;;17.83;45.73;102957.50;6282829;22;20313;-82
2023/03/01 12:00:46;;;;;;;1.55;1.17;;;;;;;17.83;45.51;102947.09;6279312;22;20064;-82
2023/03/01 12:03:14;;;;;;;2.00;1.30;;;;;;;17.83;45.48;102936.66;6310725;22;20000;-84
2023/03/01 12:06:09;;;;;;;2.22;1.30;;;;;;;17.85;45.49;102932.34;6283215;22;20343;-82
2023/03/01 12:09:12;;;;;;;3.00;1.38;;;;;;;17.85;45.48;102932.34;6283286;22;20046;-83
2023/03/01 12:12:17;;;;;;;2.30;1.30;;;;;;;17.87;45.43;102930.66;6282908;22;20374;-84
2023/03/01 12:14:59;;;;;;;2.38;1.30;;;;;;;17.87;45.21;102925.44;6283443;22;20014;-83
2023/03/01 12:17:55;;;;;;;1.83;1.17;;;;;;;17.89;45.31;102918.53;6310559;22;20007;-82
2023/03/01 12:20:41;;;;;;;1.65;1.10;;;;;;;17.91;45.21;102915.97;6283125;22;20351;-87
2023/03/01 12:23:34;;;;;;;1.65;1.20;;;;;;;17.92;45.12;102914.25;6283579;22;20015;-81
2023/03/01 12:25:59;;;;;;;1.85;1.08;;;;;;;17.91;45.17;102915.13;6284826;22;20424;-86
2023/03/01 12:28:41;;;;;;;1.77;1.20;;;;;;;17.89;45.17;102904.66;6285441;22;20053;-84
2023/03/01 12:31:28;;;;;;;2.42;1.23;;;;;;;17.87;45.36;102909.81;6285288;22;20079;-84
2023/03/01 12:34:17;;;;;;;1.67;1.10;;;;;;;17.85;45.27;102906.28;6284763;22;20015;-83
2023/03/01 12:36:54;;;;;;;2.45;1.38;;;;;;;17.86;45.42;102908.06;6311260;22;20037;-84
2023/03/01 12:39:22;;;;;;;2.50;1.35;;;;;;;17.85;45.42;102898.47;6310905;22;20003;-84
2023/03/01 12:41:55;;;;;;;2.35;1.30;;;;;;;17.85;45.25;102898.47;6283755;22;20003;-84
2023/03/01 12:44:36;;;;;;;1.90;1.25;;;;;;;17.86;45.52;102907.19;6282786;22;20003;-82
2023/03/01 12:47:36;;;;;;;1.63;1.05;;;;;;;17.86;45.34;102895.03;6282540;22;20007;-82
2023/03/01 12:50:11;;;;;;;3.53;1.10;;;;;;;17.85;45.17;102888.06;6282336;22;20033;-82
2023/03/01 12:52:43;;;;;;;2.20;1.15;;;;;;;17.87;45.22;102898.53;6310242;22;20329;-83
2023/03/01 12:55:38;;;;;;;2.15;1.30;;;;;;;17.86;45.18;102892.44;6281628;22;20090;-82
2023/03/01 12:58:24;;;;;;;2.10;1.40;;;;;;;17.86;45.13;102886.38;6281425;22;20086;-84
2023/03/01 13:01:21;;;;;;;1.38;1.10;;;;;;;17.87;45.17;102878.56;6282856;22;20031;-82
2023/03/01 13:04:12;;;;;;;1.20;1.10;;;;;;;17.87;45.15;102872.47;6271523;22;20015;-83
2023/03/01 13:06:55;;;;;;;1.75;1.20;;;;;;;17.87;45.19;102880.28;6309980;22;20320;-82
2023/03/01 13:09:39;;;;;;;3.08;1.20;;;;;;;17.85;45.08;102875.03;6282634;22;20035;-82
2023/03/01 13:12:44;;;;;;;1.80;1.10;;;;;;;17.87;45.36;102869.88;6309895;22;20463;-83
2023/03/01 13:15:29;;;;;;;1.95;1.40;;;;;;;17.87;45.26;102868.13;6283020;22;20004;-82
2023/03/01 13:18:03;;;;;;;2.42;1.45;;;;;;;17.86;45.04;102863.78;6310857;22;20003;-85
2023/03/01 13:20:41;;;;;;;2.25;1.25;;;;;;;17.87;45.04;102862.94;6282675;22;20072;-83
2023/03/01 13:23:19;;;;;;;1.60;1.00;;;;;;;17.89;45.27;102871.66;6283190;22;20011;-83
2023/03/01 13:25:57;;;;;;;1.70;1.10;;;;;;;17.91;44.97;102858.69;6311207;22;19999;-83
2023/03/01 13:28:55;;;;;;;2.15;1.25;;;;;;;17.88;45.03;102854.28;6283809;22;20033;-86
2023/03/01 13:31:23;;;;;;;2.15;1.17;;;;;;;17.91;45.09;102857.81;6294106;22;20007;-84
2023/03/01 13:33:50;;;;;;;2.00;1.30;;;;;;;17.89;45.12;102853.44;6330645;22;20022;-83
2023/03/01 13:36:27;;;;;;;3.47;1.20;;;;;;;17.91;45.11;102857.81;6295567;22;20009;-83
2023/03/01 13:38:57;;;;;;;1.80;1.40;;;;;;;17.90;45.08;102849.13;6293169;22;20094;-82
2023/03/01 13:41:38;;;;;;;1.60;1.13;;;;;;;17.91;45.11;102850.88;6285453;22;20446;-84
2023/03/01 13:44:25;;;;;;;1.60;1.10;;;;;;;17.91;44.83;102848.25;6287674;22;20497;-85
2023/03/01 13:46:55;;;;;;;1.35;1.02;;;;;;;17.89;44.98;102848.22;6296816;22;20014;-84
2023/03/01 13:49:25;;;;;;;2.20;1.23;;;;;;;17.88;45.02;102835.19;6264825;22;20003;-86
2023/03/01 13:51:51;;;;;;;1.60;1.23;;;;;;;17.89;44.82;102832.59;6283102;22;20065;-84
2023/03/01 13:54:26;;;;;;;2.10;1.10;;;;;;;17.87;44.70;102826.47;6283384;22;20030;-82